TimeEST,TemperatureF,Dew PointF,Humidity,Sea Level PressureIn,VisibilityMPH,Wind Direction,Wind SpeedMPH,Gust SpeedMPH,PrecipitationIn,Events,Conditions,WindDirDegrees,DateUTC
12:53 AM,60.1,54.0,80,30.26,10.0,Calm,Calm,-,N/A,,Clear,0,2013-01-24 05:53:00
1:53 AM,60.1,54.0,80,30.26,10.0,NNW,4.6,-,N/A,,Clear,340,2013-01-24 06:53:00
2:53 AM,60.1,54.0,80,30.25,10.0,North,4.6,-,N/A,,Clear,350,2013-01-24 07:53:00
3:53 AM,60.1,54.0,80,30.24,10.0,NNW,4.6,-,N/A,,Clear,340,2013-01-24 08:53:00
4:53 AM,59.0,53.1,81,30.24,10.0,NW,3.5,-,N/A,,Clear,320,2013-01-24 09:53:00
5:53 AM,59.0,53.1,81,30.25,10.0,NNW,5.8,-,N/A,,Clear,330,2013-01-24 10:53:00
6:53 AM,59.0,52.0,78,30.25,10.0,North,4.6,-,N/A,,Clear,350,2013-01-24 11:53:00
7:53 AM,61.0,50.0,67,30.28,10.0,North,5.8,-,N/A,,Partly Cloudy,350,2013-01-24 12:53:00
8:53 AM,66.0,48.0,52,30.30,10.0,North,5.8,-,N/A,,Partly Cloudy,350,2013-01-24 13:53:00
9:53 AM,70.0,46.0,42,30.30,10.0,North,5.8,-,N/A,,Scattered Clouds,350,2013-01-24 14:53:00
10:53 AM,73.0,48.9,42,30.30,10.0,Calm,Calm,-,N/A,,Scattered Clouds,0,2013-01-24 15:53:00
11:53 AM,75.0,50.0,41,30.28,10.0,Variable,5.8,-,N/A,,Partly Cloudy,0,2013-01-24 16:53:00
12:53 PM,75.0,51.1,43,30.26,10.0,Calm,Calm,-,N/A,,Partly Cloudy,0,2013-01-24 17:53:00
1:53 PM,75.0,52.0,44,30.23,10.0,Variable,4.6,-,N/A,,Scattered Clouds,0,2013-01-24 18:53:00
2:53 PM,75.0,52.0,44,30.21,10.0,ENE,6.9,-,N/A,,Scattered Clouds,60,2013-01-24 19:53:00
3:53 PM,73.0,52.0,48,30.21,10.0,ENE,8.1,-,N/A,,Scattered Clouds,70,2013-01-24 20:53:00
4:53 PM,72.0,52.0,49,30.23,10.0,NE,9.2,-,N/A,,Scattered Clouds,50,2013-01-24 21:53:00
5:53 PM,70.0,52.0,53,30.24,10.0,NNE,8.1,-,N/A,,Scattered Clouds,30,2013-01-24 22:53:00
6:53 PM,68.0,48.0,49,30.25,10.0,North,3.5,-,N/A,,Clear,350,2013-01-24 23:53:00
7:53 PM,66.0,48.9,54,30.26,10.0,Calm,Calm,-,N/A,,Clear,0,2013-01-25 00:53:00
8:53 PM,64.0,51.1,63,30.27,10.0,North,3.5,-,N/A,,Partly Cloudy,350,2013-01-25 01:53:00
9:53 PM,64.0,52.0,65,30.28,10.0,Calm,Calm,-,N/A,,Clear,0,2013-01-25 02:53:00
10:53 PM,63.0,52.0,67,30.28,10.0,Calm,Calm,-,N/A,,Partly Cloudy,0,2013-01-25 03:53:00
11:53 PM,62.1,52.0,70,30.27,10.0,Calm,Calm,-,N/A,,Partly Cloudy,0,2013-01-25 04:53:00